Terminal Aerodrome Forecast
Issued by NWS Pittsburgh, PA

Current Version | Previous Version | Text Only | Print | Product List | Glossary Off
Versions: 1 2 3 4 5 6 7 8 9 10 11 12 13 14 15 16 17 18 19 20 21 22 23 24 25 26 27 28 29 30 31

000
FTUS41 KPBZ 160000 AAA
TAFPIT
TAF AMD
KPIT 160016Z 1600/1706 11005KT P6SM SCT019 OVC180
     FM160800 15007KT 5SM -SHRA OVC030
     FM161200 16006KT 4SM -SHRA BR OVC015
     FM161800 20006KT 3SM BR OVC010
     FM162000 24008KT 2SM -SHRA BR OVC008=

USA.gov is the U.S. government's official web portal to all federal, state and local government web resources and services.